メインページ
METAR-TAF:

METAR-TAF

空港 :

セーシェル国際空港

ヴィクトリア, マヘ島, セーシェル

緯度: 04-40S, 経度: 055-31E, 海抜: 3m

現時点の気象観測

当レポートは15分前の21:00(UTC)に作成
南東の風 14kt、最大25ktの突風を伴う
気温 25°C
湿度 83%
気圧 1013 hPa

METAR: FSIA 192100Z AUTO 13014G25KT //// R13///// // BKN016/// BKN038/// 25/22 Q1013

時間: 01:15 (21:15 UTC)

予報

当レポートは3時間55分前の17:20(UTC)に作成
予報は19日の 18時(UTC)から 20日の 18時(UTC)まで有効
南東の風 15kt
視程10km以上
高度2000ftの雲は散在している

TAF: FSIA 191720Z 1918/2018 13015KT 9999 SCT020

4,000以上の空港の気象観測と天気予報(METAR報とTAF報)

利用可能な観測所は地図上に黄色い丸と赤い丸で示す。

丸の上にカーソルを重ねると観測所名を参照できる。

次にクリックすると気象観測と天気予報を参照できる。

マップの切り替え:黒色「×」印の緑ボタンをクリックして拡大、「-」印の緑ボタンをクリックして縮小、緑色の三角印をクリックして隣りの地図に切り替え


METAR-TAF: